sensor_id;sensor_type;location;lat;lon;timestamp;P1;durP1;ratioP1;P2;durP2;ratioP2
3911;SDS011;1971;51.778;10.330;2022-12-18T00:01:53;1.20;;;1.10;;
3911;SDS011;1971;51.778;10.330;2022-12-18T00:04:27;0.68;;;0.68;;
3911;SDS011;1971;51.778;10.330;2022-12-18T00:06:57;3.15;;;1.10;;
3911;SDS011;1971;51.778;10.330;2022-12-18T00:09:27;2.25;;;1.30;;
3911;SDS011;1971;51.778;10.330;2022-12-18T00:12:06;1.40;;;1.30;;
3911;SDS011;1971;51.778;10.330;2022-12-18T00:14:43;3.65;;;1.10;;
3911;SDS011;1971;51.778;10.330;2022-12-18T00:17:14;1.52;;;1.42;;
3911;SDS011;1971;51.778;10.330;2022-12-18T00:19:44;1.52;;;1.30;;
3911;SDS011;1971;51.778;10.330;2022-12-18T00:22:14;1.65;;;1.05;;
3911;SDS011;1971;51.778;10.330;2022-12-18T00:24:44;1.35;;;1.25;;
3911;SDS011;1971;51.778;10.330;2022-12-18T00:27:15;1.30;;;1.20;;
3911;SDS011;1971;51.778;10.330;2022-12-18T00:29:48;1.58;;;1.25;;
3911;SDS011;1971;51.778;10.330;2022-12-18T00:32:18;1.20;;;1.10;;
3911;SDS011;1971;51.778;10.330;2022-12-18T00:34:49;2.10;;;1.40;;
3911;SDS011;1971;51.778;10.330;2022-12-18T00:37:19;1.95;;;1.20;;
3911;SDS011;1971;51.778;10.330;2022-12-18T00:39:50;1.80;;;1.10;;
3911;SDS011;1971;51.778;10.330;2022-12-18T00:42:20;1.38;;;1.27;;
3911;SDS011;1971;51.778;10.330;2022-12-18T00:45:06;1.17;;;1.15;;
3911;SDS011;1971;51.778;10.330;2022-12-18T00:47:39;1.60;;;1.50;;
3911;SDS011;1971;51.778;10.330;2022-12-18T00:50:09;1.83;;;1.30;;
3911;SDS011;1971;51.778;10.330;2022-12-18T00:52:40;2.03;;;1.20;;
3911;SDS011;1971;51.778;10.330;2022-12-18T00:55:11;1.10;;;1.10;;
3911;SDS011;1971;51.778;10.330;2022-12-18T00:57:42;1.58;;;1.48;;
3911;SDS011;1971;51.778;10.330;2022-12-18T01:00:15;1.95;;;0.90;;
3911;SDS011;1971;51.778;10.330;2022-12-18T01:02:45;1.20;;;1.20;;
3911;SDS011;1971;51.778;10.330;2022-12-18T01:05:16;1.00;;;1.00;;
3911;SDS011;1971;51.778;10.330;2022-12-18T01:07:47;1.15;;;1.15;;
3911;SDS011;1971;51.778;10.330;2022-12-18T01:10:18;0.90;;;0.90;;
3911;SDS011;1971;51.778;10.330;2022-12-18T01:12:48;1.90;;;1.30;;
3911;SDS011;1971;51.778;10.330;2022-12-18T01:15:22;2.45;;;2.10;;
3911;SDS011;1971;51.778;10.330;2022-12-18T01:17:52;2.03;;;1.67;;
3911;SDS011;1971;51.778;10.330;2022-12-18T01:20:25;0.80;;;0.80;;
3911;SDS011;1971;51.778;10.330;2022-12-18T01:22:56;1.45;;;1.00;;
3911;SDS011;1971;51.778;10.330;2022-12-18T01:25:27;1.73;;;1.30;;
3911;SDS011;1971;51.778;10.330;2022-12-18T01:27:57;2.00;;;1.45;;
3911;SDS011;1971;51.778;10.330;2022-12-18T01:30:33;2.10;;;1.25;;
3911;SDS011;1971;51.778;10.330;2022-12-18T01:33:04;1.20;;;1.02;;
3911;SDS011;1971;51.778;10.330;2022-12-18T01:35:39;1.10;;;1.00;;
3911;SDS011;1971;51.778;10.330;2022-12-18T01:38:10;2.22;;;1.13;;
3911;SDS011;1971;51.778;10.330;2022-12-18T01:40:40;1.40;;;1.33;;
3911;SDS011;1971;51.778;10.330;2022-12-18T01:43:11;1.30;;;1.20;;
3911;SDS011;1971;51.778;10.330;2022-12-18T01:45:44;1.13;;;1.10;;
3911;SDS011;1971;51.778;10.330;2022-12-18T01:48:14;1.10;;;1.00;;
3911;SDS011;1971;51.778;10.330;2022-12-18T01:50:45;1.15;;;1.10;;
3911;SDS011;1971;51.778;10.330;2022-12-18T01:53:17;1.10;;;1.00;;
3911;SDS011;1971;51.778;10.330;2022-12-18T01:55:52;1.90;;;0.90;;
3911;SDS011;1971;51.778;10.330;2022-12-18T01:58:28;1.20;;;1.10;;
3911;SDS011;1971;51.778;10.330;2022-12-18T02:01:04;1.02;;;1.02;;
3911;SDS011;1971;51.778;10.330;2022-12-18T02:03:34;1.90;;;1.00;;
3911;SDS011;1971;51.778;10.330;2022-12-18T02:06:09;1.25;;;1.17;;
3911;SDS011;1971;51.778;10.330;2022-12-18T02:08:48;0.80;;;0.80;;
3911;SDS011;1971;51.778;10.330;2022-12-18T02:11:28;1.35;;;1.10;;
3911;SDS011;1971;51.778;10.330;2022-12-18T02:14:10;2.88;;;1.35;;
3911;SDS011;1971;51.778;10.330;2022-12-18T02:16:51;0.90;;;0.90;;
3911;SDS011;1971;51.778;10.330;2022-12-18T02:19:32;0.90;;;0.90;;
3911;SDS011;1971;51.778;10.330;2022-12-18T02:22:19;1.58;;;1.30;;
3911;SDS011;1971;51.778;10.330;2022-12-18T02:24:59;3.63;;;1.40;;
3911;SDS011;1971;51.778;10.330;2022-12-18T02:27:40;1.40;;;1.30;;
3911;SDS011;1971;51.778;10.330;2022-12-18T02:30:14;0.80;;;0.80;;
3911;SDS011;1971;51.778;10.330;2022-12-18T02:32:46;1.50;;;1.40;;
3911;SDS011;1971;51.778;10.330;2022-12-18T02:35:20;1.52;;;1.40;;
3911;SDS011;1971;51.778;10.330;2022-12-18T02:37:56;0.95;;;0.80;;
3911;SDS011;1971;51.778;10.330;2022-12-18T02:40:29;0.90;;;0.90;;
3911;SDS011;1971;51.778;10.330;2022-12-18T02:43:09;1.60;;;1.30;;
3911;SDS011;1971;51.778;10.330;2022-12-18T02:45:52;0.90;;;0.90;;
3911;SDS011;1971;51.778;10.330;2022-12-18T02:48:29;2.85;;;1.05;;
3911;SDS011;1971;51.778;10.330;2022-12-18T02:51:03;1.20;;;1.10;;
3911;SDS011;1971;51.778;10.330;2022-12-18T02:53:39;1.77;;;1.67;;
3911;SDS011;1971;51.778;10.330;2022-12-18T02:56:15;1.60;;;1.25;;
3911;SDS011;1971;51.778;10.330;2022-12-18T02:58:54;0.95;;;0.95;;
3911;SDS011;1971;51.778;10.330;2022-12-18T03:01:38;1.27;;;1.17;;
3911;SDS011;1971;51.778;10.330;2022-12-18T03:04:13;1.50;;;0.88;;
3911;SDS011;1971;51.778;10.330;2022-12-18T03:06:48;0.95;;;0.95;;
3911;SDS011;1971;51.778;10.330;2022-12-18T03:09:24;1.15;;;0.90;;
3911;SDS011;1971;51.778;10.330;2022-12-18T03:12:01;1.20;;;1.10;;
3911;SDS011;1971;51.778;10.330;2022-12-18T03:14:52;1.15;;;1.10;;
3911;SDS011;1971;51.778;10.330;2022-12-18T03:17:27;1.00;;;1.00;;
3911;SDS011;1971;51.778;10.330;2022-12-18T03:20:03;2.65;;;1.42;;
3911;SDS011;1971;51.778;10.330;2022-12-18T03:22:35;2.80;;;2.13;;
3911;SDS011;1971;51.778;10.330;2022-12-18T03:25:09;1.20;;;1.20;;
3911;SDS011;1971;51.778;10.330;2022-12-18T03:27:46;0.85;;;0.80;;
3911;SDS011;1971;51.778;10.330;2022-12-18T03:30:22;0.85;;;0.70;;
3911;SDS011;1971;51.778;10.330;2022-12-18T03:32:53;1.27;;;1.05;;
3911;SDS011;1971;51.778;10.330;2022-12-18T03:35:31;3.05;;;0.90;;
3911;SDS011;1971;51.778;10.330;2022-12-18T03:38:05;0.95;;;0.80;;
3911;SDS011;1971;51.778;10.330;2022-12-18T03:40:43;0.90;;;0.90;;
3911;SDS011;1971;51.778;10.330;2022-12-18T03:43:25;0.80;;;0.80;;
3911;SDS011;1971;51.778;10.330;2022-12-18T03:46:06;0.70;;;0.70;;
3911;SDS011;1971;51.778;10.330;2022-12-18T03:48:43;0.90;;;0.90;;
3911;SDS011;1971;51.778;10.330;2022-12-18T03:51:22;0.90;;;0.73;;
3911;SDS011;1971;51.778;10.330;2022-12-18T03:53:57;1.05;;;1.05;;
3911;SDS011;1971;51.778;10.330;2022-12-18T03:56:35;0.90;;;0.90;;
3911;SDS011;1971;51.778;10.330;2022-12-18T03:59:10;2.33;;;1.05;;
3911;SDS011;1971;51.778;10.330;2022-12-18T04:01:48;1.40;;;1.30;;
3911;SDS011;1971;51.778;10.330;2022-12-18T04:04:23;2.22;;;2.03;;
3911;SDS011;1971;51.778;10.330;2022-12-18T04:06:58;3.03;;;1.50;;
3911;SDS011;1971;51.778;10.330;2022-12-18T04:09:29;2.47;;;1.45;;
3911;SDS011;1971;51.778;10.330;2022-12-18T04:12:02;2.05;;;1.25;;
3911;SDS011;1971;51.778;10.330;2022-12-18T04:14:33;1.65;;;1.55;;
3911;SDS011;1971;51.778;10.330;2022-12-18T04:17:09;1.20;;;1.10;;
3911;SDS011;1971;51.778;10.330;2022-12-18T04:19:40;1.55;;;1.20;;
3911;SDS011;1971;51.778;10.330;2022-12-18T04:22:10;1.58;;;1.40;;
3911;SDS011;1971;51.778;10.330;2022-12-18T04:24:45;0.95;;;0.95;;
3911;SDS011;1971;51.778;10.330;2022-12-18T04:27:23;1.60;;;1.38;;
3911;SDS011;1971;51.778;10.330;2022-12-18T04:29:54;1.95;;;1.33;;
3911;SDS011;1971;51.778;10.330;2022-12-18T04:32:27;1.48;;;1.27;;
3911;SDS011;1971;51.778;10.330;2022-12-18T04:34:58;1.25;;;1.10;;
3911;SDS011;1971;51.778;10.330;2022-12-18T04:37:31;0.88;;;0.88;;
3911;SDS011;1971;51.778;10.330;2022-12-18T04:40:02;1.20;;;1.10;;
3911;SDS011;1971;51.778;10.330;2022-12-18T04:42:39;1.05;;;1.05;;
3911;SDS011;1971;51.778;10.330;2022-12-18T04:45:09;1.45;;;1.30;;
3911;SDS011;1971;51.778;10.330;2022-12-18T04:47:42;1.33;;;1.25;;
3911;SDS011;1971;51.778;10.330;2022-12-18T04:50:12;1.75;;;1.65;;
3911;SDS011;1971;51.778;10.330;2022-12-18T04:52:44;1.60;;;1.10;;
3911;SDS011;1971;51.778;10.330;2022-12-18T04:55:14;1.35;;;1.20;;
3911;SDS011;1971;51.778;10.330;2022-12-18T04:57:46;1.25;;;1.15;;
3911;SDS011;1971;51.778;10.330;2022-12-18T05:00:16;1.00;;;1.00;;
3911;SDS011;1971;51.778;10.330;2022-12-18T05:02:49;2.75;;;1.80;;
3911;SDS011;1971;51.778;10.330;2022-12-18T05:05:20;1.17;;;1.08;;
3911;SDS011;1971;51.778;10.330;2022-12-18T05:07:50;1.80;;;1.70;;
3911;SDS011;1971;51.778;10.330;2022-12-18T05:10:21;1.05;;;0.95;;
3911;SDS011;1971;51.778;10.330;2022-12-18T05:12:51;1.42;;;1.33;;
3911;SDS011;1971;51.778;10.330;2022-12-18T05:15:30;6.40;;;1.23;;
3911;SDS011;1971;51.778;10.330;2022-12-18T05:18:04;1.58;;;1.05;;
3911;SDS011;1971;51.778;10.330;2022-12-18T05:20:35;1.35;;;0.90;;
3911;SDS011;1971;51.778;10.330;2022-12-18T05:23:05;1.75;;;1.10;;
3911;SDS011;1971;51.778;10.330;2022-12-18T05:25:35;0.90;;;0.90;;
3911;SDS011;1971;51.778;10.330;2022-12-18T05:28:07;2.92;;;1.13;;
3911;SDS011;1971;51.778;10.330;2022-12-18T05:30:38;1.00;;;0.95;;
3911;SDS011;1971;51.778;10.330;2022-12-18T05:33:10;2.78;;;1.20;;
3911;SDS011;1971;51.778;10.330;2022-12-18T05:35:41;3.92;;;1.98;;
3911;SDS011;1971;51.778;10.330;2022-12-18T05:38:12;1.23;;;1.13;;
3911;SDS011;1971;51.778;10.330;2022-12-18T05:40:42;1.17;;;1.13;;
3911;SDS011;1971;51.778;10.330;2022-12-18T05:43:13;1.23;;;1.23;;
3911;SDS011;1971;51.778;10.330;2022-12-18T05:45:47;1.17;;;1.10;;
3911;SDS011;1971;51.778;10.330;2022-12-18T05:48:21;0.90;;;0.90;;
3911;SDS011;1971;51.778;10.330;2022-12-18T05:50:51;2.40;;;1.25;;
3911;SDS011;1971;51.778;10.330;2022-12-18T05:53:21;0.80;;;0.80;;
3911;SDS011;1971;51.778;10.330;2022-12-18T05:55:52;1.63;;;1.10;;
3911;SDS011;1971;51.778;10.330;2022-12-18T05:58:22;0.90;;;0.90;;
3911;SDS011;1971;51.778;10.330;2022-12-18T06:00:53;1.52;;;0.82;;
3911;SDS011;1971;51.778;10.330;2022-12-18T06:03:25;1.23;;;0.90;;
3911;SDS011;1971;51.778;10.330;2022-12-18T06:05:59;1.30;;;1.20;;
3911;SDS011;1971;51.778;10.330;2022-12-18T06:08:29;0.80;;;0.80;;
3911;SDS011;1971;51.778;10.330;2022-12-18T06:11:00;0.88;;;0.88;;
3911;SDS011;1971;51.778;10.330;2022-12-18T06:13:30;0.75;;;0.75;;
3911;SDS011;1971;51.778;10.330;2022-12-18T06:16:01;1.63;;;1.00;;
3911;SDS011;1971;51.778;10.330;2022-12-18T06:18:35;0.85;;;0.60;;
3911;SDS011;1971;51.778;10.330;2022-12-18T06:21:05;1.13;;;0.80;;
3911;SDS011;1971;51.778;10.330;2022-12-18T06:23:35;1.70;;;0.80;;
3911;SDS011;1971;51.778;10.330;2022-12-18T06:26:10;0.60;;;0.60;;
3911;SDS011;1971;51.778;10.330;2022-12-18T06:28:41;0.90;;;0.87;;
3911;SDS011;1971;51.778;10.330;2022-12-18T06:31:11;0.87;;;0.87;;
3911;SDS011;1971;51.778;10.330;2022-12-18T06:33:44;1.03;;;0.80;;
3911;SDS011;1971;51.778;10.330;2022-12-18T06:36:15;0.70;;;0.70;;
3911;SDS011;1971;51.778;10.330;2022-12-18T06:38:46;0.80;;;0.80;;
3911;SDS011;1971;51.778;10.330;2022-12-18T06:41:16;0.77;;;0.70;;
3911;SDS011;1971;51.778;10.330;2022-12-18T06:43:48;0.87;;;0.70;;
3911;SDS011;1971;51.778;10.330;2022-12-18T06:46:25;0.93;;;0.93;;
3911;SDS011;1971;51.778;10.330;2022-12-18T06:48:58;2.20;;;0.90;;
3911;SDS011;1971;51.778;10.330;2022-12-18T06:51:28;1.90;;;0.87;;
3911;SDS011;1971;51.778;10.330;2022-12-18T06:53:59;1.07;;;0.80;;
3911;SDS011;1971;51.778;10.330;2022-12-18T06:56:29;0.60;;;0.60;;
3911;SDS011;1971;51.778;10.330;2022-12-18T06:58:59;1.47;;;0.87;;
3911;SDS011;1971;51.778;10.330;2022-12-18T07:01:30;1.90;;;1.10;;
3911;SDS011;1971;51.778;10.330;2022-12-18T07:04:03;0.67;;;0.67;;
3911;SDS011;1971;51.778;10.330;2022-12-18T07:06:33;3.60;;;1.60;;
3911;SDS011;1971;51.778;10.330;2022-12-18T07:09:03;1.07;;;0.87;;
3911;SDS011;1971;51.778;10.330;2022-12-18T07:11:33;1.43;;;1.33;;
3911;SDS011;1971;51.778;10.330;2022-12-18T07:14:03;0.90;;;0.90;;
3911;SDS011;1971;51.778;10.330;2022-12-18T07:16:33;0.87;;;0.87;;
3911;SDS011;1971;51.778;10.330;2022-12-18T07:19:06;1.30;;;1.20;;
3911;SDS011;1971;51.778;10.330;2022-12-18T07:21:37;2.73;;;2.00;;
3911;SDS011;1971;51.778;10.330;2022-12-18T07:24:07;2.00;;;1.90;;
3911;SDS011;1971;51.778;10.330;2022-12-18T07:26:37;4.60;;;3.00;;
3911;SDS011;1971;51.778;10.330;2022-12-18T07:29:07;3.53;;;2.57;;
3911;SDS011;1971;51.778;10.330;2022-12-18T07:31:38;4.03;;;1.70;;
3911;SDS011;1971;51.778;10.330;2022-12-18T07:34:12;6.80;;;2.10;;
3911;SDS011;1971;51.778;10.330;2022-12-18T07:36:43;1.33;;;1.23;;
3911;SDS011;1971;51.778;10.330;2022-12-18T07:39:14;4.03;;;2.67;;
3911;SDS011;1971;51.778;10.330;2022-12-18T07:41:44;4.70;;;1.67;;
3911;SDS011;1971;51.778;10.330;2022-12-18T07:44:35;1.07;;;0.90;;
3911;SDS011;1971;51.778;10.330;2022-12-18T07:47:06;1.67;;;1.57;;
3911;SDS011;1971;51.778;10.330;2022-12-18T07:49:41;3.00;;;1.93;;
3911;SDS011;1971;51.778;10.330;2022-12-18T07:52:11;2.43;;;1.50;;
3911;SDS011;1971;51.778;10.330;2022-12-18T07:54:41;4.60;;;1.10;;
3911;SDS011;1971;51.778;10.330;2022-12-18T07:57:12;2.10;;;1.87;;
3911;SDS011;1971;51.778;10.330;2022-12-18T08:00:03;2.33;;;1.47;;
3911;SDS011;1971;51.778;10.330;2022-12-18T08:02:37;1.80;;;1.40;;
3911;SDS011;1971;51.778;10.330;2022-12-18T08:05:11;2.23;;;1.43;;
3911;SDS011;1971;51.778;10.330;2022-12-18T08:07:41;2.03;;;1.80;;
3911;SDS011;1971;51.778;10.330;2022-12-18T08:10:12;4.03;;;2.17;;
3911;SDS011;1971;51.778;10.330;2022-12-18T08:12:42;2.93;;;2.53;;
3911;SDS011;1971;51.778;10.330;2022-12-18T08:15:13;2.97;;;1.87;;
3911;SDS011;1971;51.778;10.330;2022-12-18T08:17:42;1.40;;;1.17;;
3911;SDS011;1971;51.778;10.330;2022-12-18T08:20:15;5.30;;;2.97;;
3911;SDS011;1971;51.778;10.330;2022-12-18T08:22:46;2.87;;;2.20;;
3911;SDS011;1971;51.778;10.330;2022-12-18T08:25:16;1.20;;;1.10;;
3911;SDS011;1971;51.778;10.330;2022-12-18T08:27:47;3.20;;;1.57;;
3911;SDS011;1971;51.778;10.330;2022-12-18T08:30:17;1.43;;;1.20;;
3911;SDS011;1971;51.778;10.330;2022-12-18T08:32:50;0.77;;;0.77;;
3911;SDS011;1971;51.778;10.330;2022-12-18T08:35:23;1.40;;;1.30;;
3911;SDS011;1971;51.778;10.330;2022-12-18T08:38:02;4.73;;;2.90;;
3911;SDS011;1971;51.778;10.330;2022-12-18T08:40:32;2.67;;;2.47;;
3911;SDS011;1971;51.778;10.330;2022-12-18T08:43:05;5.97;;;4.73;;
3911;SDS011;1971;51.778;10.330;2022-12-18T08:45:48;3.30;;;3.10;;
3911;SDS011;1971;51.778;10.330;2022-12-18T08:48:19;4.97;;;4.50;;
3911;SDS011;1971;51.778;10.330;2022-12-18T08:50:56;1.90;;;1.80;;
3911;SDS011;1971;51.778;10.330;2022-12-18T08:53:27;1.50;;;1.40;;
3911;SDS011;1971;51.778;10.330;2022-12-18T08:56:01;0.90;;;0.90;;
3911;SDS011;1971;51.778;10.330;2022-12-18T08:58:31;1.00;;;1.00;;
3911;SDS011;1971;51.778;10.330;2022-12-18T09:01:02;1.10;;;1.00;;
3911;SDS011;1971;51.778;10.330;2022-12-18T09:03:34;1.00;;;1.00;;
3911;SDS011;1971;51.778;10.330;2022-12-18T09:06:08;1.20;;;1.10;;
3911;SDS011;1971;51.778;10.330;2022-12-18T09:08:42;1.33;;;1.23;;
3911;SDS011;1971;51.778;10.330;2022-12-18T09:11:14;2.67;;;2.47;;
3911;SDS011;1971;51.778;10.330;2022-12-18T09:13:48;1.00;;;0.90;;
3911;SDS011;1971;51.778;10.330;2022-12-18T09:16:19;1.07;;;0.70;;
3911;SDS011;1971;51.778;10.330;2022-12-18T09:18:58;1.03;;;1.00;;
3911;SDS011;1971;51.778;10.330;2022-12-18T09:21:32;0.77;;;0.60;;
3911;SDS011;1971;51.778;10.330;2022-12-18T09:24:11;0.47;;;0.43;;
3911;SDS011;1971;51.778;10.330;2022-12-18T09:26:43;0.70;;;0.60;;
3911;SDS011;1971;51.778;10.330;2022-12-18T09:29:13;1.53;;;0.80;;
3911;SDS011;1971;51.778;10.330;2022-12-18T09:31:44;0.77;;;0.57;;
3911;SDS011;1971;51.778;10.330;2022-12-18T09:34:16;0.70;;;0.70;;
3911;SDS011;1971;51.778;10.330;2022-12-18T09:36:50;1.80;;;0.50;;
3911;SDS011;1971;51.778;10.330;2022-12-18T09:39:20;1.50;;;1.40;;
3911;SDS011;1971;51.778;10.330;2022-12-18T09:41:51;0.90;;;0.50;;
3911;SDS011;1971;51.778;10.330;2022-12-18T09:44:24;0.70;;;0.70;;
3911;SDS011;1971;51.778;10.330;2022-12-18T09:46:59;0.73;;;0.73;;
3911;SDS011;1971;51.778;10.330;2022-12-18T09:49:39;0.50;;;0.50;;
3911;SDS011;1971;51.778;10.330;2022-12-18T09:52:17;0.60;;;0.50;;
3911;SDS011;1971;51.778;10.330;2022-12-18T09:54:53;0.53;;;0.53;;
3911;SDS011;1971;51.778;10.330;2022-12-18T09:57:28;0.50;;;0.30;;
3911;SDS011;1971;51.778;10.330;2022-12-18T10:00:03;0.60;;;0.50;;
3911;SDS011;1971;51.778;10.330;2022-12-18T10:02:40;0.60;;;0.30;;
3911;SDS011;1971;51.778;10.330;2022-12-18T10:05:11;0.60;;;0.40;;
3911;SDS011;1971;51.778;10.330;2022-12-18T10:07:58;0.50;;;0.40;;
3911;SDS011;1971;51.778;10.330;2022-12-18T10:10:35;0.40;;;0.40;;
3911;SDS011;1971;51.778;10.330;2022-12-18T10:13:16;0.40;;;0.40;;
3911;SDS011;1971;51.778;10.330;2022-12-18T10:15:56;0.60;;;0.50;;
3911;SDS011;1971;51.778;10.330;2022-12-18T10:18:39;1.13;;;0.70;;
3911;SDS011;1971;51.778;10.330;2022-12-18T10:21:36;0.50;;;0.43;;
3911;SDS011;1971;51.778;10.330;2022-12-18T10:24:15;0.67;;;0.40;;
3911;SDS011;1971;51.778;10.330;2022-12-18T10:26:51;0.40;;;0.30;;
3911;SDS011;1971;51.778;10.330;2022-12-18T10:29:24;0.50;;;0.40;;
3911;SDS011;1971;51.778;10.330;2022-12-18T10:31:55;0.70;;;0.50;;
3911;SDS011;1971;51.778;10.330;2022-12-18T10:34:25;0.50;;;0.40;;
3911;SDS011;1971;51.778;10.330;2022-12-18T10:36:56;0.50;;;0.50;;
3911;SDS011;1971;51.778;10.330;2022-12-18T10:39:29;0.50;;;0.43;;
3911;SDS011;1971;51.778;10.330;2022-12-18T10:42:09;1.13;;;0.50;;
3911;SDS011;1971;51.778;10.330;2022-12-18T10:44:40;0.50;;;0.43;;
3911;SDS011;1971;51.778;10.330;2022-12-18T10:47:11;0.70;;;0.70;;
3911;SDS011;1971;51.778;10.330;2022-12-18T10:49:47;1.63;;;0.70;;
3911;SDS011;1971;51.778;10.330;2022-12-18T10:52:20;1.43;;;0.80;;
3911;SDS011;1971;51.778;10.330;2022-12-18T10:54:55;0.70;;;0.60;;
3911;SDS011;1971;51.778;10.330;2022-12-18T10:57:31;0.53;;;0.50;;
3911;SDS011;1971;51.778;10.330;2022-12-18T11:02:51;1.83;;;1.43;;
3911;SDS011;1971;51.778;10.330;2022-12-18T11:05:24;0.90;;;0.77;;
3911;SDS011;1971;51.778;10.330;2022-12-18T11:07:57;0.50;;;0.50;;
3911;SDS011;1971;51.778;10.330;2022-12-18T11:10:31;2.93;;;0.70;;
3911;SDS011;1971;51.778;10.330;2022-12-18T11:13:12;0.70;;;0.40;;
3911;SDS011;1971;51.778;10.330;2022-12-18T11:15:46;0.50;;;0.50;;
3911;SDS011;1971;51.778;10.330;2022-12-18T11:18:17;0.70;;;0.70;;
3911;SDS011;1971;51.778;10.330;2022-12-18T11:20:52;0.90;;;0.70;;
3911;SDS011;1971;51.778;10.330;2022-12-18T11:23:25;0.70;;;0.70;;
3911;SDS011;1971;51.778;10.330;2022-12-18T11:25:59;0.90;;;0.50;;
3911;SDS011;1971;51.778;10.330;2022-12-18T11:28:35;0.60;;;0.50;;
3911;SDS011;1971;51.778;10.330;2022-12-18T11:31:09;0.60;;;0.60;;
3911;SDS011;1971;51.778;10.330;2022-12-18T11:33:46;0.63;;;0.47;;
3911;SDS011;1971;51.778;10.330;2022-12-18T11:36:42;0.93;;;0.93;;
3911;SDS011;1971;51.778;10.330;2022-12-18T11:39:15;0.70;;;0.70;;
3911;SDS011;1971;51.778;10.330;2022-12-18T11:41:52;1.13;;;0.60;;
3911;SDS011;1971;51.778;10.330;2022-12-18T11:44:42;0.83;;;0.50;;
3911;SDS011;1971;51.778;10.330;2022-12-18T11:47:22;0.50;;;0.43;;
3911;SDS011;1971;51.778;10.330;2022-12-18T11:50:00;0.70;;;0.70;;
3911;SDS011;1971;51.778;10.330;2022-12-18T11:52:31;0.80;;;0.60;;
3911;SDS011;1971;51.778;10.330;2022-12-18T11:55:10;0.57;;;0.50;;
3911;SDS011;1971;51.778;10.330;2022-12-18T11:57:46;1.50;;;0.70;;
3911;SDS011;1971;51.778;10.330;2022-12-18T12:00:22;4.00;;;3.20;;
3911;SDS011;1971;51.778;10.330;2022-12-18T12:03:07;3.10;;;2.43;;
3911;SDS011;1971;51.778;10.330;2022-12-18T12:05:53;2.60;;;1.27;;
3911;SDS011;1971;51.778;10.330;2022-12-18T12:08:35;1.73;;;1.43;;
3911;SDS011;1971;51.778;10.330;2022-12-18T12:11:18;2.23;;;1.97;;
3911;SDS011;1971;51.778;10.330;2022-12-18T12:14:00;2.20;;;2.00;;
3911;SDS011;1971;51.778;10.330;2022-12-18T12:16:42;3.10;;;2.23;;
3911;SDS011;1971;51.778;10.330;2022-12-18T12:19:22;1.83;;;1.40;;
3911;SDS011;1971;51.778;10.330;2022-12-18T12:22:03;0.53;;;0.40;;
3911;SDS011;1971;51.778;10.330;2022-12-18T12:24:44;0.50;;;0.40;;
3911;SDS011;1971;51.778;10.330;2022-12-18T12:27:26;1.33;;;1.23;;
3911;SDS011;1971;51.778;10.330;2022-12-18T12:30:10;0.50;;;0.40;;
3911;SDS011;1971;51.778;10.330;2022-12-18T12:32:54;0.50;;;0.40;;
3911;SDS011;1971;51.778;10.330;2022-12-18T12:35:33;0.50;;;0.50;;
3911;SDS011;1971;51.778;10.330;2022-12-18T12:38:13;2.10;;;0.80;;
3911;SDS011;1971;51.778;10.330;2022-12-18T12:40:49;0.50;;;0.50;;
3911;SDS011;1971;51.778;10.330;2022-12-18T12:43:32;1.03;;;0.43;;
3911;SDS011;1971;51.778;10.330;2022-12-18T12:46:14;0.60;;;0.50;;
3911;SDS011;1971;51.778;10.330;2022-12-18T12:49:09;1.37;;;0.40;;
3911;SDS011;1971;51.778;10.330;2022-12-18T12:51:43;0.60;;;0.60;;
3911;SDS011;1971;51.778;10.330;2022-12-18T12:54:16;1.30;;;1.20;;
3911;SDS011;1971;51.778;10.330;2022-12-18T12:56:50;0.70;;;0.70;;
3911;SDS011;1971;51.778;10.330;2022-12-18T12:59:29;0.97;;;0.73;;
3911;SDS011;1971;51.778;10.330;2022-12-18T13:02:14;0.50;;;0.40;;
3911;SDS011;1971;51.778;10.330;2022-12-18T13:04:56;1.33;;;0.70;;
3911;SDS011;1971;51.778;10.330;2022-12-18T13:07:32;0.80;;;0.40;;
3911;SDS011;1971;51.778;10.330;2022-12-18T13:10:12;0.50;;;0.40;;
3911;SDS011;1971;51.778;10.330;2022-12-18T13:12:55;1.27;;;0.73;;
3911;SDS011;1971;51.778;10.330;2022-12-18T13:15:25;0.70;;;0.60;;
3911;SDS011;1971;51.778;10.330;2022-12-18T13:18:18;1.00;;;0.90;;
3911;SDS011;1971;51.778;10.330;2022-12-18T13:20:50;1.27;;;1.00;;
3911;SDS011;1971;51.778;10.330;2022-12-18T13:23:32;0.83;;;0.60;;
3911;SDS011;1971;51.778;10.330;2022-12-18T13:29:02;0.40;;;0.40;;
3911;SDS011;1971;51.778;10.330;2022-12-18T13:34:48;0.87;;;0.87;;
3911;SDS011;1971;51.778;10.330;2022-12-18T13:46:19;0.60;;;0.40;;
3911;SDS011;1971;51.778;10.330;2022-12-18T13:48:53;0.80;;;0.80;;
3911;SDS011;1971;51.778;10.330;2022-12-18T13:51:33;2.30;;;0.50;;
3911;SDS011;1971;51.778;10.330;2022-12-18T13:54:06;0.50;;;0.50;;
3911;SDS011;1971;51.778;10.330;2022-12-18T13:56:48;0.70;;;0.70;;
3911;SDS011;1971;51.778;10.330;2022-12-18T13:59:19;1.03;;;0.90;;
3911;SDS011;1971;51.778;10.330;2022-12-18T14:01:52;0.70;;;0.70;;
3911;SDS011;1971;51.778;10.330;2022-12-18T14:04:26;1.13;;;1.03;;
3911;SDS011;1971;51.778;10.330;2022-12-18T14:07:01;0.50;;;0.50;;
3911;SDS011;1971;51.778;10.330;2022-12-18T14:09:35;0.70;;;0.60;;
3911;SDS011;1971;51.778;10.330;2022-12-18T14:12:06;0.60;;;0.60;;
3911;SDS011;1971;51.778;10.330;2022-12-18T14:14:59;0.50;;;0.50;;
3911;SDS011;1971;51.778;10.330;2022-12-18T14:17:30;0.60;;;0.60;;
3911;SDS011;1971;51.778;10.330;2022-12-18T14:20:02;0.93;;;0.80;;
3911;SDS011;1971;51.778;10.330;2022-12-18T14:22:38;0.60;;;0.50;;
3911;SDS011;1971;51.778;10.330;2022-12-18T14:25:15;0.80;;;0.80;;
3911;SDS011;1971;51.778;10.330;2022-12-18T14:27:47;0.60;;;0.60;;
3911;SDS011;1971;51.778;10.330;2022-12-18T14:30:24;0.50;;;0.40;;
3911;SDS011;1971;51.778;10.330;2022-12-18T14:33:00;0.87;;;0.60;;
3911;SDS011;1971;51.778;10.330;2022-12-18T14:35:31;0.70;;;0.60;;
3911;SDS011;1971;51.778;10.330;2022-12-18T14:38:28;0.70;;;0.70;;
3911;SDS011;1971;51.778;10.330;2022-12-18T14:41:04;0.73;;;0.60;;
3911;SDS011;1971;51.778;10.330;2022-12-18T14:43:36;0.70;;;0.70;;
3911;SDS011;1971;51.778;10.330;2022-12-18T14:48:56;0.57;;;0.57;;
3911;SDS011;1971;51.778;10.330;2022-12-18T14:51:28;1.03;;;0.70;;
3911;SDS011;1971;51.778;10.330;2022-12-18T14:54:03;2.87;;;0.63;;
3911;SDS011;1971;51.778;10.330;2022-12-18T14:56:43;0.50;;;0.50;;
3911;SDS011;1971;51.778;10.330;2022-12-18T14:59:16;0.80;;;0.80;;
3911;SDS011;1971;51.778;10.330;2022-12-18T15:01:54;1.23;;;1.13;;
3911;SDS011;1971;51.778;10.330;2022-12-18T15:04:30;0.63;;;0.60;;
3911;SDS011;1971;51.778;10.330;2022-12-18T15:07:08;0.50;;;0.40;;
3911;SDS011;1971;51.778;10.330;2022-12-18T15:10:00;0.70;;;0.70;;
3911;SDS011;1971;51.778;10.330;2022-12-18T15:12:40;0.80;;;0.63;;
3911;SDS011;1971;51.778;10.330;2022-12-18T15:18:13;0.60;;;0.53;;
3911;SDS011;1971;51.778;10.330;2022-12-18T15:20:46;1.20;;;0.53;;
3911;SDS011;1971;51.778;10.330;2022-12-18T15:23:20;0.60;;;0.60;;
3911;SDS011;1971;51.778;10.330;2022-12-18T15:25:58;0.50;;;0.50;;
3911;SDS011;1971;51.778;10.330;2022-12-18T15:28:33;0.70;;;0.57;;
3911;SDS011;1971;51.778;10.330;2022-12-18T15:31:20;0.60;;;0.47;;
3911;SDS011;1971;51.778;10.330;2022-12-18T15:36:49;1.17;;;0.60;;
3911;SDS011;1971;51.778;10.330;2022-12-18T15:39:20;0.70;;;0.70;;
3911;SDS011;1971;51.778;10.330;2022-12-18T15:41:53;0.63;;;0.60;;
3911;SDS011;1971;51.778;10.330;2022-12-18T15:44:36;0.50;;;0.50;;
3911;SDS011;1971;51.778;10.330;2022-12-18T15:47:10;0.60;;;0.57;;
3911;SDS011;1971;51.778;10.330;2022-12-18T15:49:42;0.53;;;0.47;;
3911;SDS011;1971;51.778;10.330;2022-12-18T15:52:12;0.70;;;0.60;;
3911;SDS011;1971;51.778;10.330;2022-12-18T15:54:52;0.50;;;0.50;;
3911;SDS011;1971;51.778;10.330;2022-12-18T15:57:37;3.87;;;1.00;;
3911;SDS011;1971;51.778;10.330;2022-12-18T16:00:11;0.63;;;0.63;;
3911;SDS011;1971;51.778;10.330;2022-12-18T16:02:42;0.93;;;0.60;;
3911;SDS011;1971;51.778;10.330;2022-12-18T16:05:13;0.67;;;0.67;;
3911;SDS011;1971;51.778;10.330;2022-12-18T16:07:45;0.50;;;0.50;;
3911;SDS011;1971;51.778;10.330;2022-12-18T16:10:16;0.87;;;0.87;;
3911;SDS011;1971;51.778;10.330;2022-12-18T16:12:50;1.10;;;0.70;;